sensor_id;sensor_type;location;lat;lon;timestamp;P1;durP1;ratioP1;P2;durP2;ratioP2
77612;SDS011;66777;52.282;5.960;2023-06-10T00:00:40;155.55;;;150.82;;
77612;SDS011;66777;52.282;5.960;2023-06-10T00:03:07;182.70;;;177.35;;
77612;SDS011;66777;52.282;5.960;2023-06-10T00:05:33;144.23;;;139.70;;
77612;SDS011;66777;52.282;5.960;2023-06-10T00:08:00;150.45;;;145.88;;
77612;SDS011;66777;52.282;5.960;2023-06-10T00:10:35;158.23;;;153.40;;
77612;SDS011;66777;52.282;5.960;2023-06-10T00:13:02;153.20;;;148.55;;
77612;SDS011;66777;52.282;5.960;2023-06-10T00:15:30;153.45;;;148.57;;
77612;SDS011;66777;52.282;5.960;2023-06-10T00:17:56;155.38;;;150.55;;
77612;SDS011;66777;52.282;5.960;2023-06-10T00:20:22;138.77;;;134.43;;
77612;SDS011;66777;52.282;5.960;2023-06-10T00:22:51;135.13;;;130.80;;
77612;SDS011;66777;52.282;5.960;2023-06-10T00:25:17;152.23;;;147.40;;
77612;SDS011;66777;52.282;5.960;2023-06-10T00:27:43;130.90;;;126.72;;
77612;SDS011;66777;52.282;5.960;2023-06-10T00:30:09;149.85;;;145.00;;
77612;SDS011;66777;52.282;5.960;2023-06-10T00:32:36;146.38;;;141.75;;
77612;SDS011;66777;52.282;5.960;2023-06-10T00:35:02;135.75;;;131.32;;
77612;SDS011;66777;52.282;5.960;2023-06-10T00:37:29;151.05;;;146.43;;
77612;SDS011;66777;52.282;5.960;2023-06-10T00:39:55;142.65;;;137.90;;
77612;SDS011;66777;52.282;5.960;2023-06-10T00:42:21;141.82;;;137.30;;
77612;SDS011;66777;52.282;5.960;2023-06-10T00:44:49;144.10;;;139.63;;
77612;SDS011;66777;52.282;5.960;2023-06-10T00:47:15;142.70;;;138.27;;
77612;SDS011;66777;52.282;5.960;2023-06-10T00:49:41;132.88;;;128.45;;
77612;SDS011;66777;52.282;5.960;2023-06-10T00:52:08;137.60;;;133.13;;
77612;SDS011;66777;52.282;5.960;2023-06-10T00:54:35;145.15;;;140.60;;
77612;SDS011;66777;52.282;5.960;2023-06-10T00:57:03;130.02;;;125.65;;
77612;SDS011;66777;52.282;5.960;2023-06-10T00:59:30;145.73;;;141.15;;
77612;SDS011;66777;52.282;5.960;2023-06-10T01:01:57;132.48;;;127.90;;
77612;SDS011;66777;52.282;5.960;2023-06-10T01:04:23;132.07;;;127.70;;
77612;SDS011;66777;52.282;5.960;2023-06-10T01:09:41;138.15;;;133.73;;
77612;SDS011;66777;52.282;5.960;2023-06-10T01:15:13;118.18;;;114.20;;
77612;SDS011;66777;52.282;5.960;2023-06-10T01:18:29;129.77;;;125.55;;
77612;SDS011;66777;52.282;5.960;2023-06-10T01:20:27;133.20;;;128.65;;
77612;SDS011;66777;52.282;5.960;2023-06-10T01:22:56;125.18;;;121.07;;
77612;SDS011;66777;52.282;5.960;2023-06-10T01:25:24;138.60;;;134.00;;
77612;SDS011;66777;52.282;5.960;2023-06-10T01:33:29;132.32;;;128.10;;
77612;SDS011;66777;52.282;5.960;2023-06-10T01:36:00;153.40;;;148.35;;
77612;SDS011;66777;52.282;5.960;2023-06-10T01:38:29;135.48;;;130.73;;
77612;SDS011;66777;52.282;5.960;2023-06-10T01:40:58;149.43;;;144.40;;
77612;SDS011;66777;52.282;5.960;2023-06-10T01:43:25;124.03;;;119.65;;
77612;SDS011;66777;52.282;5.960;2023-06-10T01:45:50;123.85;;;119.78;;
77612;SDS011;66777;52.282;5.960;2023-06-10T01:48:16;122.65;;;118.53;;
77612;SDS011;66777;52.282;5.960;2023-06-10T01:50:42;123.05;;;118.80;;
77612;SDS011;66777;52.282;5.960;2023-06-10T01:53:08;120.60;;;116.47;;
77612;SDS011;66777;52.282;5.960;2023-06-10T01:55:35;114.22;;;110.13;;
77612;SDS011;66777;52.282;5.960;2023-06-10T01:58:01;119.45;;;115.18;;
77612;SDS011;66777;52.282;5.960;2023-06-10T02:00:27;132.43;;;127.88;;
77612;SDS011;66777;52.282;5.960;2023-06-10T02:02:53;143.65;;;139.07;;
77612;SDS011;66777;52.282;5.960;2023-06-10T02:05:18;123.78;;;119.28;;
77612;SDS011;66777;52.282;5.960;2023-06-10T02:07:44;130.27;;;126.05;;
77612;SDS011;66777;52.282;5.960;2023-06-10T02:10:10;134.95;;;130.43;;
77612;SDS011;66777;52.282;5.960;2023-06-10T02:12:36;121.95;;;117.75;;
77612;SDS011;66777;52.282;5.960;2023-06-10T02:15:01;125.40;;;121.28;;
77612;SDS011;66777;52.282;5.960;2023-06-10T02:17:28;112.97;;;109.05;;
77612;SDS011;66777;52.282;5.960;2023-06-10T02:19:55;120.75;;;116.43;;
77612;SDS011;66777;52.282;5.960;2023-06-10T02:22:22;145.70;;;141.05;;
77612;SDS011;66777;52.282;5.960;2023-06-10T02:24:48;128.35;;;123.90;;
77612;SDS011;66777;52.282;5.960;2023-06-10T02:27:15;116.05;;;112.13;;
77612;SDS011;66777;52.282;5.960;2023-06-10T02:29:41;106.47;;;102.75;;
77612;SDS011;66777;52.282;5.960;2023-06-10T02:32:08;145.55;;;140.68;;
77612;SDS011;66777;52.282;5.960;2023-06-10T02:34:34;130.98;;;126.78;;
77612;SDS011;66777;52.282;5.960;2023-06-10T02:37:01;118.45;;;114.45;;
77612;SDS011;66777;52.282;5.960;2023-06-10T02:39:27;109.20;;;105.35;;
77612;SDS011;66777;52.282;5.960;2023-06-10T02:41:53;138.25;;;133.80;;
77612;SDS011;66777;52.282;5.960;2023-06-10T02:44:19;111.32;;;107.30;;
77612;SDS011;66777;52.282;5.960;2023-06-10T02:46:45;109.10;;;104.78;;
77612;SDS011;66777;52.282;5.960;2023-06-10T02:49:11;107.63;;;103.72;;
77612;SDS011;66777;52.282;5.960;2023-06-10T02:51:38;127.18;;;122.95;;
77612;SDS011;66777;52.282;5.960;2023-06-10T02:54:04;105.40;;;101.50;;
77612;SDS011;66777;52.282;5.960;2023-06-10T02:56:29;112.13;;;108.00;;
77612;SDS011;66777;52.282;5.960;2023-06-10T02:58:56;117.93;;;113.68;;
77612;SDS011;66777;52.282;5.960;2023-06-10T03:01:23;115.45;;;111.50;;
77612;SDS011;66777;52.282;5.960;2023-06-10T03:03:48;108.68;;;104.72;;
77612;SDS011;66777;52.282;5.960;2023-06-10T03:06:15;99.80;;;95.90;;
77612;SDS011;66777;52.282;5.960;2023-06-10T03:08:41;102.85;;;98.90;;
77612;SDS011;66777;52.282;5.960;2023-06-10T03:11:06;98.93;;;95.30;;
77612;SDS011;66777;52.282;5.960;2023-06-10T03:13:32;102.28;;;98.45;;
77612;SDS011;66777;52.282;5.960;2023-06-10T03:15:58;106.28;;;102.25;;
77612;SDS011;66777;52.282;5.960;2023-06-10T03:18:25;105.97;;;101.93;;
77612;SDS011;66777;52.282;5.960;2023-06-10T03:20:52;110.88;;;106.85;;
77612;SDS011;66777;52.282;5.960;2023-06-10T03:23:18;114.18;;;110.15;;
77612;SDS011;66777;52.282;5.960;2023-06-10T03:25:44;115.55;;;111.50;;
77612;SDS011;66777;52.282;5.960;2023-06-10T03:28:10;107.32;;;103.30;;
77612;SDS011;66777;52.282;5.960;2023-06-10T03:30:36;101.97;;;98.05;;
77612;SDS011;66777;52.282;5.960;2023-06-10T03:33:01;99.30;;;95.68;;
77612;SDS011;66777;52.282;5.960;2023-06-10T03:35:28;107.00;;;103.03;;
77612;SDS011;66777;52.282;5.960;2023-06-10T03:37:54;99.97;;;96.30;;
77612;SDS011;66777;52.282;5.960;2023-06-10T03:40:20;104.93;;;101.13;;
77612;SDS011;66777;52.282;5.960;2023-06-10T03:42:46;109.47;;;105.30;;
77612;SDS011;66777;52.282;5.960;2023-06-10T03:45:11;131.95;;;127.53;;
77612;SDS011;66777;52.282;5.960;2023-06-10T03:47:38;93.82;;;89.90;;
77612;SDS011;66777;52.282;5.960;2023-06-10T03:50:06;95.10;;;91.57;;
77612;SDS011;66777;52.282;5.960;2023-06-10T03:52:33;102.75;;;98.57;;
77612;SDS011;66777;52.282;5.960;2023-06-10T03:54:59;105.03;;;101.28;;
77612;SDS011;66777;52.282;5.960;2023-06-10T03:57:25;103.53;;;99.47;;
77612;SDS011;66777;52.282;5.960;2023-06-10T03:59:51;107.30;;;103.38;;
77612;SDS011;66777;52.282;5.960;2023-06-10T04:02:17;120.75;;;116.07;;
77612;SDS011;66777;52.282;5.960;2023-06-10T04:04:43;96.35;;;92.63;;
77612;SDS011;66777;52.282;5.960;2023-06-10T04:07:08;94.47;;;90.78;;
77612;SDS011;66777;52.282;5.960;2023-06-10T04:09:34;84.45;;;81.15;;
77612;SDS011;66777;52.282;5.960;2023-06-10T04:12:01;98.40;;;94.72;;
77612;SDS011;66777;52.282;5.960;2023-06-10T04:14:27;82.45;;;79.35;;
77612;SDS011;66777;52.282;5.960;2023-06-10T04:16:53;107.38;;;103.43;;
77612;SDS011;66777;52.282;5.960;2023-06-10T04:19:18;94.38;;;90.75;;
77612;SDS011;66777;52.282;5.960;2023-06-10T04:21:45;90.70;;;86.95;;
77612;SDS011;66777;52.282;5.960;2023-06-10T04:24:10;107.20;;;103.07;;
77612;SDS011;66777;52.282;5.960;2023-06-10T04:26:36;94.18;;;90.65;;
77612;SDS011;66777;52.282;5.960;2023-06-10T04:29:02;111.90;;;107.80;;
77612;SDS011;66777;52.282;5.960;2023-06-10T04:31:28;110.25;;;106.30;;
77612;SDS011;66777;52.282;5.960;2023-06-10T04:33:53;103.55;;;99.80;;
77612;SDS011;66777;52.282;5.960;2023-06-10T04:36:19;103.15;;;99.25;;
77612;SDS011;66777;52.282;5.960;2023-06-10T04:38:45;118.72;;;114.43;;
77612;SDS011;66777;52.282;5.960;2023-06-10T04:41:12;90.47;;;86.68;;
77612;SDS011;66777;52.282;5.960;2023-06-10T04:43:38;111.63;;;107.47;;
77612;SDS011;66777;52.282;5.960;2023-06-10T04:46:03;92.35;;;88.85;;
77612;SDS011;66777;52.282;5.960;2023-06-10T04:48:30;99.63;;;96.00;;
77612;SDS011;66777;52.282;5.960;2023-06-10T04:50:55;95.18;;;91.60;;
77612;SDS011;66777;52.282;5.960;2023-06-10T04:53:22;84.95;;;81.47;;
77612;SDS011;66777;52.282;5.960;2023-06-10T04:55:48;110.63;;;106.55;;
77612;SDS011;66777;52.282;5.960;2023-06-10T04:58:14;110.90;;;106.85;;
77612;SDS011;66777;52.282;5.960;2023-06-10T05:00:40;101.15;;;97.25;;
77612;SDS011;66777;52.282;5.960;2023-06-10T05:03:06;111.45;;;107.63;;
77612;SDS011;66777;52.282;5.960;2023-06-10T05:05:32;113.28;;;109.18;;
77612;SDS011;66777;52.282;5.960;2023-06-10T05:07:58;110.03;;;106.03;;
77612;SDS011;66777;52.282;5.960;2023-06-10T05:10:24;108.75;;;104.85;;
77612;SDS011;66777;52.282;5.960;2023-06-10T05:12:49;104.95;;;100.80;;
77612;SDS011;66777;52.282;5.960;2023-06-10T05:15:15;131.90;;;127.20;;
77612;SDS011;66777;52.282;5.960;2023-06-10T05:17:41;101.35;;;97.60;;
77612;SDS011;66777;52.282;5.960;2023-06-10T05:20:07;116.20;;;111.95;;
77612;SDS011;66777;52.282;5.960;2023-06-10T05:22:33;111.15;;;107.13;;
77612;SDS011;66777;52.282;5.960;2023-06-10T05:24:59;108.70;;;104.78;;
77612;SDS011;66777;52.282;5.960;2023-06-10T05:27:25;112.93;;;108.85;;
77612;SDS011;66777;52.282;5.960;2023-06-10T05:29:51;123.32;;;119.15;;
77612;SDS011;66777;52.282;5.960;2023-06-10T05:32:17;113.00;;;108.63;;
77612;SDS011;66777;52.282;5.960;2023-06-10T05:34:43;98.60;;;94.65;;
77612;SDS011;66777;52.282;5.960;2023-06-10T05:37:09;107.60;;;103.50;;
77612;SDS011;66777;52.282;5.960;2023-06-10T05:39:38;108.65;;;104.53;;
77612;SDS011;66777;52.282;5.960;2023-06-10T05:42:04;119.45;;;115.13;;
77612;SDS011;66777;52.282;5.960;2023-06-10T05:44:32;123.03;;;118.63;;
77612;SDS011;66777;52.282;5.960;2023-06-10T05:46:58;138.30;;;133.32;;
77612;SDS011;66777;52.282;5.960;2023-06-10T05:49:24;115.82;;;111.57;;
77612;SDS011;66777;52.282;5.960;2023-06-10T05:51:50;116.07;;;111.93;;
77612;SDS011;66777;52.282;5.960;2023-06-10T05:54:17;114.53;;;110.13;;
77612;SDS011;66777;52.282;5.960;2023-06-10T05:56:43;115.57;;;111.30;;
77612;SDS011;66777;52.282;5.960;2023-06-10T05:59:09;131.80;;;127.13;;
77612;SDS011;66777;52.282;5.960;2023-06-10T06:01:35;117.28;;;113.05;;
77612;SDS011;66777;52.282;5.960;2023-06-10T06:04:01;127.20;;;122.63;;
77612;SDS011;66777;52.282;5.960;2023-06-10T06:06:26;125.20;;;120.50;;
77612;SDS011;66777;52.282;5.960;2023-06-10T06:08:52;120.55;;;116.22;;
77612;SDS011;66777;52.282;5.960;2023-06-10T06:11:18;129.40;;;124.88;;
77612;SDS011;66777;52.282;5.960;2023-06-10T06:13:44;124.38;;;120.13;;
77612;SDS011;66777;52.282;5.960;2023-06-10T06:16:09;154.52;;;149.25;;
77612;SDS011;66777;52.282;5.960;2023-06-10T06:18:35;128.10;;;123.55;;
77612;SDS011;66777;52.282;5.960;2023-06-10T06:21:00;134.43;;;129.55;;
77612;SDS011;66777;52.282;5.960;2023-06-10T06:23:26;150.07;;;145.13;;
77612;SDS011;66777;52.282;5.960;2023-06-10T06:25:52;143.30;;;138.43;;
77612;SDS011;66777;52.282;5.960;2023-06-10T06:28:17;124.32;;;120.00;;
77612;SDS011;66777;52.282;5.960;2023-06-10T06:30:46;138.23;;;133.38;;
77612;SDS011;66777;52.282;5.960;2023-06-10T06:33:12;143.60;;;138.50;;
77612;SDS011;66777;52.282;5.960;2023-06-10T06:35:38;133.45;;;128.77;;
77612;SDS011;66777;52.282;5.960;2023-06-10T06:38:05;129.50;;;124.88;;
77612;SDS011;66777;52.282;5.960;2023-06-10T06:40:31;142.57;;;137.65;;
77612;SDS011;66777;52.282;5.960;2023-06-10T06:42:56;144.25;;;139.32;;
77612;SDS011;66777;52.282;5.960;2023-06-10T06:45:22;138.15;;;133.23;;
77612;SDS011;66777;52.282;5.960;2023-06-10T06:47:48;142.70;;;137.98;;
77612;SDS011;66777;52.282;5.960;2023-06-10T06:50:14;152.20;;;147.38;;
77612;SDS011;66777;52.282;5.960;2023-06-10T06:52:40;154.98;;;150.02;;
77612;SDS011;66777;52.282;5.960;2023-06-10T06:55:06;152.63;;;147.57;;
77612;SDS011;66777;52.282;5.960;2023-06-10T06:57:32;144.02;;;139.20;;
77612;SDS011;66777;52.282;5.960;2023-06-10T06:59:57;145.27;;;140.38;;
77612;SDS011;66777;52.282;5.960;2023-06-10T07:02:23;154.18;;;149.18;;
77612;SDS011;66777;52.282;5.960;2023-06-10T07:04:49;161.73;;;156.55;;
77612;SDS011;66777;52.282;5.960;2023-06-10T07:07:15;157.43;;;152.40;;
77612;SDS011;66777;52.282;5.960;2023-06-10T07:09:40;159.27;;;154.13;;
77612;SDS011;66777;52.282;5.960;2023-06-10T07:12:07;166.50;;;161.15;;
77612;SDS011;66777;52.282;5.960;2023-06-10T07:14:34;151.43;;;146.50;;
77612;SDS011;66777;52.282;5.960;2023-06-10T07:17:00;153.68;;;148.43;;
77612;SDS011;66777;52.282;5.960;2023-06-10T07:19:25;175.30;;;169.82;;
77612;SDS011;66777;52.282;5.960;2023-06-10T07:21:51;166.43;;;161.30;;
77612;SDS011;66777;52.282;5.960;2023-06-10T07:24:16;171.73;;;166.20;;
77612;SDS011;66777;52.282;5.960;2023-06-10T07:26:42;170.82;;;165.10;;
77612;SDS011;66777;52.282;5.960;2023-06-10T07:29:07;179.93;;;174.25;;
77612;SDS011;66777;52.282;5.960;2023-06-10T07:31:33;177.07;;;171.57;;
77612;SDS011;66777;52.282;5.960;2023-06-10T07:33:59;182.20;;;176.45;;
77612;SDS011;66777;52.282;5.960;2023-06-10T07:36:25;184.25;;;178.70;;
77612;SDS011;66777;52.282;5.960;2023-06-10T07:38:56;181.80;;;176.27;;
77612;SDS011;66777;52.282;5.960;2023-06-10T07:41:24;169.35;;;164.13;;
77612;SDS011;66777;52.282;5.960;2023-06-10T07:43:51;170.85;;;165.52;;
77612;SDS011;66777;52.282;5.960;2023-06-10T07:46:20;171.45;;;166.25;;
77612;SDS011;66777;52.282;5.960;2023-06-10T07:48:47;185.52;;;180.00;;
77612;SDS011;66777;52.282;5.960;2023-06-10T07:51:13;173.63;;;168.10;;
77612;SDS011;66777;52.282;5.960;2023-06-10T07:53:40;199.77;;;194.07;;
77612;SDS011;66777;52.282;5.960;2023-06-10T07:56:06;217.43;;;211.13;;
77612;SDS011;66777;52.282;5.960;2023-06-10T07:58:31;207.93;;;201.98;;
77612;SDS011;66777;52.282;5.960;2023-06-10T08:00:57;218.35;;;212.10;;
77612;SDS011;66777;52.282;5.960;2023-06-10T08:03:23;204.35;;;198.10;;
77612;SDS011;66777;52.282;5.960;2023-06-10T08:05:49;213.18;;;207.23;;
77612;SDS011;66777;52.282;5.960;2023-06-10T08:08:15;203.85;;;197.65;;
77612;SDS011;66777;52.282;5.960;2023-06-10T08:10:41;234.70;;;228.25;;
77612;SDS011;66777;52.282;5.960;2023-06-10T08:13:07;223.55;;;217.30;;
77612;SDS011;66777;52.282;5.960;2023-06-10T08:15:34;229.63;;;223.30;;
77612;SDS011;66777;52.282;5.960;2023-06-10T08:17:59;233.88;;;227.60;;
77612;SDS011;66777;52.282;5.960;2023-06-10T08:20:25;239.10;;;232.43;;
77612;SDS011;66777;52.282;5.960;2023-06-10T08:22:51;231.20;;;224.95;;
77612;SDS011;66777;52.282;5.960;2023-06-10T08:25:17;223.40;;;217.10;;
77612;SDS011;66777;52.282;5.960;2023-06-10T08:27:42;225.73;;;219.48;;
77612;SDS011;66777;52.282;5.960;2023-06-10T08:30:08;238.50;;;231.52;;
77612;SDS011;66777;52.282;5.960;2023-06-10T08:32:35;279.55;;;272.25;;
77612;SDS011;66777;52.282;5.960;2023-06-10T08:35:02;231.38;;;225.15;;
77612;SDS011;66777;52.282;5.960;2023-06-10T08:37:28;279.08;;;271.60;;
77612;SDS011;66777;52.282;5.960;2023-06-10T08:39:54;255.50;;;248.65;;
77612;SDS011;66777;52.282;5.960;2023-06-10T08:42:25;258.38;;;251.35;;
77612;SDS011;66777;52.282;5.960;2023-06-10T08:45:04;250.50;;;243.70;;
77612;SDS011;66777;52.282;5.960;2023-06-10T08:47:31;248.10;;;241.43;;
77612;SDS011;66777;52.282;5.960;2023-06-10T08:50:04;239.10;;;232.50;;
77612;SDS011;66777;52.282;5.960;2023-06-10T08:52:37;297.08;;;289.42;;
77612;SDS011;66777;52.282;5.960;2023-06-10T08:55:12;250.73;;;243.85;;
77612;SDS011;66777;52.282;5.960;2023-06-10T08:57:47;258.45;;;251.60;;
77612;SDS011;66777;52.282;5.960;2023-06-10T09:00:14;261.63;;;254.77;;
77612;SDS011;66777;52.282;5.960;2023-06-10T09:02:42;273.13;;;266.05;;
77612;SDS011;66777;52.282;5.960;2023-06-10T09:05:08;271.80;;;264.50;;
77612;SDS011;66777;52.282;5.960;2023-06-10T09:07:35;276.98;;;269.77;;
77612;SDS011;66777;52.282;5.960;2023-06-10T09:10:02;276.08;;;268.85;;
77612;SDS011;66777;52.282;5.960;2023-06-10T09:12:29;307.48;;;299.42;;
77612;SDS011;66777;52.282;5.960;2023-06-10T09:14:55;268.52;;;261.58;;
77612;SDS011;66777;52.282;5.960;2023-06-10T09:17:21;283.40;;;276.00;;
77612;SDS011;66777;52.282;5.960;2023-06-10T09:19:47;288.33;;;280.90;;
77612;SDS011;66777;52.282;5.960;2023-06-10T09:22:13;294.80;;;287.27;;
77612;SDS011;66777;52.282;5.960;2023-06-10T09:24:39;289.15;;;281.60;;
77612;SDS011;66777;52.282;5.960;2023-06-10T09:27:06;320.27;;;312.27;;
77612;SDS011;66777;52.282;5.960;2023-06-10T09:29:51;338.65;;;319.13;;
77612;SDS011;66777;52.282;5.960;2023-06-10T09:32:22;316.23;;;294.98;;
77612;SDS011;66777;52.282;5.960;2023-06-10T09:34:49;352.77;;;343.35;;
77612;SDS011;66777;52.282;5.960;2023-06-10T09:37:25;359.70;;;348.23;;
77612;SDS011;66777;52.282;5.960;2023-06-10T09:40:03;312.10;;;300.00;;
77612;SDS011;66777;52.282;5.960;2023-06-10T09:42:35;343.38;;;333.48;;
77612;SDS011;66777;52.282;5.960;2023-06-10T09:45:05;298.15;;;290.58;;
77612;SDS011;66777;52.282;5.960;2023-06-10T09:47:32;304.90;;;297.33;;
77612;SDS011;66777;52.282;5.960;2023-06-10T09:49:58;359.88;;;351.02;;
77612;SDS011;66777;52.282;5.960;2023-06-10T09:52:25;352.85;;;344.05;;
77612;SDS011;66777;52.282;5.960;2023-06-10T09:54:59;352.92;;;344.15;;
77612;SDS011;66777;52.282;5.960;2023-06-10T09:57:26;305.70;;;297.83;;
77612;SDS011;66777;52.282;5.960;2023-06-10T10:00:04;346.52;;;337.88;;
77612;SDS011;66777;52.282;5.960;2023-06-10T10:02:31;325.02;;;317.15;;
77612;SDS011;66777;52.282;5.960;2023-06-10T10:05:03;308.77;;;300.98;;
77612;SDS011;66777;52.282;5.960;2023-06-10T10:07:29;324.33;;;316.38;;
77612;SDS011;66777;52.282;5.960;2023-06-10T10:09:55;331.17;;;322.85;;
77612;SDS011;66777;52.282;5.960;2023-06-10T10:12:21;346.52;;;338.02;;
77612;SDS011;66777;52.282;5.960;2023-06-10T10:14:48;373.88;;;364.67;;
77612;SDS011;66777;52.282;5.960;2023-06-10T10:17:15;330.15;;;321.73;;
77612;SDS011;66777;52.282;5.960;2023-06-10T10:19:48;335.13;;;326.88;;
77612;SDS011;66777;52.282;5.960;2023-06-10T10:22:20;337.83;;;329.48;;
77612;SDS011;66777;52.282;5.960;2023-06-10T10:24:59;386.17;;;376.85;;
77612;SDS011;66777;52.282;5.960;2023-06-10T10:27:51;347.73;;;339.00;;
77612;SDS011;66777;52.282;5.960;2023-06-10T10:30:17;346.95;;;338.40;;
77612;SDS011;66777;52.282;5.960;2023-06-10T10:32:50;350.35;;;341.70;;
77612;SDS011;66777;52.282;5.960;2023-06-10T10:35:21;399.83;;;389.95;;
77612;SDS011;66777;52.282;5.960;2023-06-10T10:37:53;361.08;;;352.23;;
77612;SDS011;66777;52.282;5.960;2023-06-10T10:40:23;352.42;;;343.83;;
77612;SDS011;66777;52.282;5.960;2023-06-10T10:42:51;361.08;;;352.35;;
77612;SDS011;66777;52.282;5.960;2023-06-10T10:45:18;347.65;;;338.98;;
77612;SDS011;66777;52.282;5.960;2023-06-10T10:47:45;358.67;;;349.92;;
77612;SDS011;66777;52.282;5.960;2023-06-10T10:53:00;359.92;;;351.20;;
77612;SDS011;66777;52.282;5.960;2023-06-10T10:55:28;352.88;;;344.05;;
77612;SDS011;66777;52.282;5.960;2023-06-10T10:57:58;362.48;;;353.55;;
77612;SDS011;66777;52.282;5.960;2023-06-10T11:00:30;356.73;;;347.85;;
77612;SDS011;66777;52.282;5.960;2023-06-10T11:03:04;364.70;;;355.65;;
77612;SDS011;66777;52.282;5.960;2023-06-10T11:08:59;362.23;;;353.30;;
77612;SDS011;66777;52.282;5.960;2023-06-10T11:11:00;404.98;;;395.17;;
77612;SDS011;66777;52.282;5.960;2023-06-10T11:13:26;367.95;;;358.95;;
77612;SDS011;66777;52.282;5.960;2023-06-10T11:15:53;415.88;;;405.88;;
77612;SDS011;66777;52.282;5.960;2023-06-10T11:20:54;353.95;;;345.10;;
77612;SDS011;66777;52.282;5.960;2023-06-10T11:31:27;375.00;;;365.60;;
77612;SDS011;66777;52.282;5.960;2023-06-10T11:33:56;354.23;;;345.55;;
77612;SDS011;66777;52.282;5.960;2023-06-10T11:36:26;380.40;;;371.15;;
77612;SDS011;66777;52.282;5.960;2023-06-10T11:38:55;368.02;;;359.00;;
77612;SDS011;66777;52.282;5.960;2023-06-10T11:41:25;417.38;;;407.08;;
77612;SDS011;66777;52.282;5.960;2023-06-10T11:43:53;372.38;;;363.38;;
77612;SDS011;66777;52.282;5.960;2023-06-10T11:46:21;363.20;;;354.40;;
77612;SDS011;66777;52.282;5.960;2023-06-10T11:48:49;357.15;;;348.30;;
77612;SDS011;66777;52.282;5.960;2023-06-10T11:51:25;357.52;;;348.83;;
77612;SDS011;66777;52.282;5.960;2023-06-10T11:53:51;372.30;;;363.05;;
77612;SDS011;66777;52.282;5.960;2023-06-10T11:56:21;389.42;;;379.90;;
77612;SDS011;66777;52.282;5.960;2023-06-10T11:58:52;406.05;;;395.60;;
77612;SDS011;66777;52.282;5.960;2023-06-10T12:01:23;403.17;;;393.33;;
77612;SDS011;66777;52.282;5.960;2023-06-10T12:06:25;391.25;;;381.77;;
77612;SDS011;66777;52.282;5.960;2023-06-10T12:08:51;402.25;;;392.42;;
77612;SDS011;66777;52.282;5.960;2023-06-10T12:11:18;408.48;;;398.35;;
77612;SDS011;66777;52.282;5.960;2023-06-10T12:13:46;416.70;;;406.58;;
77612;SDS011;66777;52.282;5.960;2023-06-10T12:16:16;408.52;;;398.50;;
77612;SDS011;66777;52.282;5.960;2023-06-10T12:18:46;440.55;;;429.88;;
77612;SDS011;66777;52.282;5.960;2023-06-10T12:21:18;398.33;;;388.67;;
77612;SDS011;66777;52.282;5.960;2023-06-10T12:24:05;405.85;;;396.02;;
77612;SDS011;66777;52.282;5.960;2023-06-10T12:26:36;407.17;;;397.40;;
77612;SDS011;66777;52.282;5.960;2023-06-10T12:29:20;390.40;;;380.77;;
77612;SDS011;66777;52.282;5.960;2023-06-10T12:32:02;399.63;;;389.98;;
77612;SDS011;66777;52.282;5.960;2023-06-10T12:34:37;460.02;;;449.08;;
77612;SDS011;66777;52.282;5.960;2023-06-10T12:37:05;384.65;;;375.02;;
77612;SDS011;66777;52.282;5.960;2023-06-10T12:39:38;397.52;;;387.77;;
77612;SDS011;66777;52.282;5.960;2023-06-10T12:42:05;402.15;;;392.40;;
77612;SDS011;66777;52.282;5.960;2023-06-10T12:44:41;394.25;;;384.77;;
77612;SDS011;66777;52.282;5.960;2023-06-10T12:47:10;394.23;;;384.52;;
77612;SDS011;66777;52.282;5.960;2023-06-10T12:49:37;394.70;;;385.02;;
77612;SDS011;66777;52.282;5.960;2023-06-10T12:52:03;390.90;;;381.45;;
77612;SDS011;66777;52.282;5.960;2023-06-10T12:54:30;400.52;;;390.77;;
77612;SDS011;66777;52.282;5.960;2023-06-10T12:56:56;394.33;;;384.77;;
77612;SDS011;66777;52.282;5.960;2023-06-10T12:59:22;389.38;;;379.95;;
77612;SDS011;66777;52.282;5.960;2023-06-10T13:01:52;391.75;;;382.08;;
77612;SDS011;66777;52.282;5.960;2023-06-10T13:04:18;393.63;;;380.08;;
77612;SDS011;66777;52.282;5.960;2023-06-10T13:06:45;392.60;;;382.48;;
77612;SDS011;66777;52.282;5.960;2023-06-10T13:09:13;398.48;;;388.70;;
77612;SDS011;66777;52.282;5.960;2023-06-10T13:11:39;395.60;;;385.92;;
77612;SDS011;66777;52.282;5.960;2023-06-10T13:14:06;400.55;;;389.98;;
77612;SDS011;66777;52.282;5.960;2023-06-10T13:16:32;404.80;;;394.33;;
77612;SDS011;66777;52.282;5.960;2023-06-10T13:18:58;415.73;;;405.50;;
77612;SDS011;66777;52.282;5.960;2023-06-10T13:21:24;405.45;;;395.45;;
77612;SDS011;66777;52.282;5.960;2023-06-10T13:23:50;437.70;;;427.15;;
77612;SDS011;66777;52.282;5.960;2023-06-10T13:26:16;422.83;;;412.52;;
77612;SDS011;66777;52.282;5.960;2023-06-10T13:28:43;431.58;;;421.08;;
77612;SDS011;66777;52.282;5.960;2023-06-10T13:31:09;416.60;;;406.23;;
77612;SDS011;66777;52.282;5.960;2023-06-10T13:33:35;426.17;;;415.50;;
77612;SDS011;66777;52.282;5.960;2023-06-10T13:36:01;415.33;;;405.23;;
77612;SDS011;66777;52.282;5.960;2023-06-10T13:38:27;428.35;;;417.75;;
77612;SDS011;66777;52.282;5.960;2023-06-10T13:40:53;421.45;;;411.02;;
77612;SDS011;66777;52.282;5.960;2023-06-10T13:43:18;469.90;;;458.23;;
77612;SDS011;66777;52.282;5.960;2023-06-10T13:45:44;427.27;;;416.75;;
77612;SDS011;66777;52.282;5.960;2023-06-10T13:48:10;422.75;;;412.42;;
77612;SDS011;66777;52.282;5.960;2023-06-10T13:50:37;438.30;;;427.70;;
77612;SDS011;66777;52.282;5.960;2023-06-10T13:53:03;418.65;;;408.45;;
77612;SDS011;66777;52.282;5.960;2023-06-10T13:55:28;433.45;;;422.95;;
77612;SDS011;66777;52.282;5.960;2023-06-10T13:57:54;449.85;;;438.90;;
77612;SDS011;66777;52.282;5.960;2023-06-10T14:00:20;436.88;;;426.27;;
77612;SDS011;66777;52.282;5.960;2023-06-10T14:02:46;435.08;;;424.42;;
77612;SDS011;66777;52.282;5.960;2023-06-10T14:05:11;412.30;;;402.30;;
77612;SDS011;66777;52.282;5.960;2023-06-10T14:07:37;416.30;;;406.20;;
77612;SDS011;66777;52.282;5.960;2023-06-10T14:10:05;473.52;;;462.17;;
77612;SDS011;66777;52.282;5.960;2023-06-10T14:12:33;429.90;;;419.55;;
77612;SDS011;66777;52.282;5.960;2023-06-10T14:14:58;448.75;;;437.83;;
77612;SDS011;66777;52.282;5.960;2023-06-10T14:17:24;474.85;;;463.23;;
77612;SDS011;66777;52.282;5.960;2023-06-10T14:19:50;450.20;;;439.08;;
77612;SDS011;66777;52.282;5.960;2023-06-10T14:22:15;454.15;;;443.05;;
77612;SDS011;66777;52.282;5.960;2023-06-10T14:24:41;426.90;;;416.58;;
77612;SDS011;66777;52.282;5.960;2023-06-10T14:27:06;439.65;;;428.92;;
77612;SDS011;66777;52.282;5.960;2023-06-10T14:29:32;448.20;;;437.35;;